EDDK

Cologne Bonn Airport

Cologne, Germany
METAR EDDK 201720Z 02003KT 350V080 CAVOK 10/05 Q1031 NOSIG
Observed Flight Rules
Oct-20 @ 17:20 UTC (35 minutes ago) Visual Flight Rules
Wind Visibility Clouds
20° at 3 knots 10,000+ meters
  • Clear skies
Temperatures Readings
Current 10°C / 50°F
Dewpoint 5°C / 41°F
Humidity 71%
Altimeter 30.44" Hg
Pressure 1031 hPa
Elevation 99
METAR EDDK 201720Z 02003KT 350V080 CAVOK 10/05 Q1031 NOSIG
Observed Flight Rules
Oct-20 @ 17:20 UTC
(35 minutes ago)
VFR
Wind Visibility
20° at 3 knots 10,000+ meters
Clouds
  • Clear skies
Temperature Dewpoint
10°C / 50°F 5°C / 41°F
Humidity Altimeter Pressure
71% 30.44" Hg 1031 hPa